sensor_id;sensor_type;location;lat;lon;timestamp;P1;durP1;ratioP1;P2;durP2;ratioP2
54193;SDS011;40102;50.906;6.972;2024-02-21T00:01:21;11.23;;;3.40;;
54193;SDS011;40102;50.906;6.972;2024-02-21T00:03:47;10.93;;;3.85;;
54193;SDS011;40102;50.906;6.972;2024-02-21T00:06:13;11.65;;;3.58;;
54193;SDS011;40102;50.906;6.972;2024-02-21T00:08:38;10.45;;;3.40;;
54193;SDS011;40102;50.906;6.972;2024-02-21T00:11:04;8.57;;;3.80;;
54193;SDS011;40102;50.906;6.972;2024-02-21T00:13:29;8.68;;;2.95;;
54193;SDS011;40102;50.906;6.972;2024-02-21T00:15:55;10.27;;;3.53;;
54193;SDS011;40102;50.906;6.972;2024-02-21T00:18:20;10.77;;;3.10;;
54193;SDS011;40102;50.906;6.972;2024-02-21T00:20:46;10.32;;;3.53;;
54193;SDS011;40102;50.906;6.972;2024-02-21T00:23:11;7.97;;;3.28;;
54193;SDS011;40102;50.906;6.972;2024-02-21T00:25:36;11.93;;;3.80;;
54193;SDS011;40102;50.906;6.972;2024-02-21T00:28:02;8.95;;;3.28;;
54193;SDS011;40102;50.906;6.972;2024-02-21T00:30:28;11.63;;;3.60;;
54193;SDS011;40102;50.906;6.972;2024-02-21T00:32:53;9.55;;;3.20;;
54193;SDS011;40102;50.906;6.972;2024-02-21T00:35:18;11.32;;;3.00;;
54193;SDS011;40102;50.906;6.972;2024-02-21T00:37:44;8.13;;;3.65;;
54193;SDS011;40102;50.906;6.972;2024-02-21T00:40:09;9.55;;;3.40;;
54193;SDS011;40102;50.906;6.972;2024-02-21T00:42:35;9.18;;;3.47;;
54193;SDS011;40102;50.906;6.972;2024-02-21T00:45:01;10.05;;;3.53;;
54193;SDS011;40102;50.906;6.972;2024-02-21T00:47:26;11.25;;;3.60;;
54193;SDS011;40102;50.906;6.972;2024-02-21T00:49:51;8.80;;;3.90;;
54193;SDS011;40102;50.906;6.972;2024-02-21T00:52:17;9.02;;;3.25;;
54193;SDS011;40102;50.906;6.972;2024-02-21T00:54:43;11.95;;;2.90;;
54193;SDS011;40102;50.906;6.972;2024-02-21T00:57:08;14.55;;;3.80;;
54193;SDS011;40102;50.906;6.972;2024-02-21T00:59:34;10.73;;;3.35;;
54193;SDS011;40102;50.906;6.972;2024-02-21T01:01:59;20.27;;;4.82;;
54193;SDS011;40102;50.906;6.972;2024-02-21T01:04:24;9.88;;;2.95;;
54193;SDS011;40102;50.906;6.972;2024-02-21T01:06:50;11.68;;;3.50;;
54193;SDS011;40102;50.906;6.972;2024-02-21T01:09:15;7.05;;;2.70;;
54193;SDS011;40102;50.906;6.972;2024-02-21T01:11:41;10.18;;;3.30;;
54193;SDS011;40102;50.906;6.972;2024-02-21T01:14:06;8.68;;;3.70;;
54193;SDS011;40102;50.906;6.972;2024-02-21T01:16:31;9.57;;;3.08;;
54193;SDS011;40102;50.906;6.972;2024-02-21T01:18:56;7.07;;;3.22;;
54193;SDS011;40102;50.906;6.972;2024-02-21T01:21:22;10.27;;;3.47;;
54193;SDS011;40102;50.906;6.972;2024-02-21T01:23:48;8.60;;;2.85;;
54193;SDS011;40102;50.906;6.972;2024-02-21T01:26:13;7.03;;;3.20;;
54193;SDS011;40102;50.906;6.972;2024-02-21T01:28:40;7.88;;;3.00;;
54193;SDS011;40102;50.906;6.972;2024-02-21T01:31:06;11.35;;;3.30;;
54193;SDS011;40102;50.906;6.972;2024-02-21T01:33:32;10.00;;;3.25;;
54193;SDS011;40102;50.906;6.972;2024-02-21T01:36:00;10.75;;;3.20;;
54193;SDS011;40102;50.906;6.972;2024-02-21T01:38:27;9.48;;;3.38;;
54193;SDS011;40102;50.906;6.972;2024-02-21T01:40:53;4.57;;;2.60;;
54193;SDS011;40102;50.906;6.972;2024-02-21T01:43:19;5.75;;;2.90;;
54193;SDS011;40102;50.906;6.972;2024-02-21T01:45:49;9.77;;;3.45;;
54193;SDS011;40102;50.906;6.972;2024-02-21T01:48:17;7.65;;;3.45;;
54193;SDS011;40102;50.906;6.972;2024-02-21T01:50:47;12.05;;;3.75;;
54193;SDS011;40102;50.906;6.972;2024-02-21T01:53:14;11.40;;;4.18;;
54193;SDS011;40102;50.906;6.972;2024-02-21T01:55:46;9.55;;;3.90;;
54193;SDS011;40102;50.906;6.972;2024-02-21T01:58:15;12.70;;;3.90;;
54193;SDS011;40102;50.906;6.972;2024-02-21T02:00:42;12.05;;;3.50;;
54193;SDS011;40102;50.906;6.972;2024-02-21T02:03:12;7.97;;;3.30;;
54193;SDS011;40102;50.906;6.972;2024-02-21T02:05:44;10.25;;;3.40;;
54193;SDS011;40102;50.906;6.972;2024-02-21T02:08:10;10.73;;;3.42;;
54193;SDS011;40102;50.906;6.972;2024-02-21T02:10:36;10.38;;;3.28;;
54193;SDS011;40102;50.906;6.972;2024-02-21T02:13:02;9.43;;;3.35;;
54193;SDS011;40102;50.906;6.972;2024-02-21T02:15:37;8.02;;;3.67;;
54193;SDS011;40102;50.906;6.972;2024-02-21T02:18:15;12.48;;;3.78;;
54193;SDS011;40102;50.906;6.972;2024-02-21T02:20:41;14.02;;;3.72;;
54193;SDS011;40102;50.906;6.972;2024-02-21T02:23:10;12.10;;;3.20;;
54193;SDS011;40102;50.906;6.972;2024-02-21T02:25:37;6.95;;;3.28;;
54193;SDS011;40102;50.906;6.972;2024-02-21T02:28:04;15.77;;;3.10;;
54193;SDS011;40102;50.906;6.972;2024-02-21T02:30:32;7.78;;;3.10;;
54193;SDS011;40102;50.906;6.972;2024-02-21T02:33:04;10.10;;;3.70;;
54193;SDS011;40102;50.906;6.972;2024-02-21T02:35:30;6.93;;;3.17;;
54193;SDS011;40102;50.906;6.972;2024-02-21T02:37:56;10.75;;;3.20;;
54193;SDS011;40102;50.906;6.972;2024-02-21T02:40:21;10.32;;;3.00;;
54193;SDS011;40102;50.906;6.972;2024-02-21T02:42:47;9.77;;;4.20;;
54193;SDS011;40102;50.906;6.972;2024-02-21T02:45:14;8.95;;;3.65;;
54193;SDS011;40102;50.906;6.972;2024-02-21T02:47:40;11.18;;;3.42;;
54193;SDS011;40102;50.906;6.972;2024-02-21T02:50:06;10.38;;;3.10;;
54193;SDS011;40102;50.906;6.972;2024-02-21T02:52:32;7.20;;;3.00;;
54193;SDS011;40102;50.906;6.972;2024-02-21T02:54:57;10.13;;;3.53;;
54193;SDS011;40102;50.906;6.972;2024-02-21T02:57:22;9.95;;;3.20;;
54193;SDS011;40102;50.906;6.972;2024-02-21T02:59:48;13.48;;;3.35;;
54193;SDS011;40102;50.906;6.972;2024-02-21T03:02:14;11.77;;;3.42;;
54193;SDS011;40102;50.906;6.972;2024-02-21T03:04:39;7.28;;;2.85;;
54193;SDS011;40102;50.906;6.972;2024-02-21T03:07:05;13.35;;;3.10;;
54193;SDS011;40102;50.906;6.972;2024-02-21T03:09:31;8.85;;;3.20;;
54193;SDS011;40102;50.906;6.972;2024-02-21T03:11:56;13.10;;;3.20;;
54193;SDS011;40102;50.906;6.972;2024-02-21T03:14:27;7.03;;;3.10;;
54193;SDS011;40102;50.906;6.972;2024-02-21T03:16:53;13.30;;;3.85;;
54193;SDS011;40102;50.906;6.972;2024-02-21T03:19:18;12.32;;;3.60;;
54193;SDS011;40102;50.906;6.972;2024-02-21T03:21:44;12.52;;;3.10;;
54193;SDS011;40102;50.906;6.972;2024-02-21T03:24:09;12.65;;;3.65;;
54193;SDS011;40102;50.906;6.972;2024-02-21T03:26:34;10.93;;;3.10;;
54193;SDS011;40102;50.906;6.972;2024-02-21T03:28:59;10.95;;;3.45;;
54193;SDS011;40102;50.906;6.972;2024-02-21T03:31:25;8.88;;;3.00;;
54193;SDS011;40102;50.906;6.972;2024-02-21T03:33:50;10.38;;;3.20;;
54193;SDS011;40102;50.906;6.972;2024-02-21T03:36:15;10.20;;;3.10;;
54193;SDS011;40102;50.906;6.972;2024-02-21T03:38:41;9.82;;;3.30;;
54193;SDS011;40102;50.906;6.972;2024-02-21T03:41:06;8.52;;;3.00;;
54193;SDS011;40102;50.906;6.972;2024-02-21T03:43:34;12.52;;;3.05;;
54193;SDS011;40102;50.906;6.972;2024-02-21T03:45:59;9.38;;;3.53;;
54193;SDS011;40102;50.906;6.972;2024-02-21T03:48:24;17.50;;;3.58;;
54193;SDS011;40102;50.906;6.972;2024-02-21T03:50:50;9.05;;;3.00;;
54193;SDS011;40102;50.906;6.972;2024-02-21T03:53:16;7.88;;;3.00;;
54193;SDS011;40102;50.906;6.972;2024-02-21T03:55:42;7.97;;;2.63;;
54193;SDS011;40102;50.906;6.972;2024-02-21T03:58:07;8.50;;;3.08;;
54193;SDS011;40102;50.906;6.972;2024-02-21T04:00:32;11.48;;;2.88;;
54193;SDS011;40102;50.906;6.972;2024-02-21T04:02:58;8.95;;;2.75;;
54193;SDS011;40102;50.906;6.972;2024-02-21T04:05:23;11.27;;;3.00;;
54193;SDS011;40102;50.906;6.972;2024-02-21T04:07:48;10.63;;;3.20;;
54193;SDS011;40102;50.906;6.972;2024-02-21T04:10:14;8.25;;;3.20;;
54193;SDS011;40102;50.906;6.972;2024-02-21T04:12:40;11.20;;;3.47;;
54193;SDS011;40102;50.906;6.972;2024-02-21T04:15:05;4.55;;;2.60;;
54193;SDS011;40102;50.906;6.972;2024-02-21T04:17:30;6.18;;;2.80;;
54193;SDS011;40102;50.906;6.972;2024-02-21T04:20:01;5.60;;;2.70;;
54193;SDS011;40102;50.906;6.972;2024-02-21T04:22:33;9.60;;;3.13;;
54193;SDS011;40102;50.906;6.972;2024-02-21T04:24:59;10.35;;;3.30;;
54193;SDS011;40102;50.906;6.972;2024-02-21T04:27:25;6.13;;;2.70;;
54193;SDS011;40102;50.906;6.972;2024-02-21T04:29:51;12.85;;;3.35;;
54193;SDS011;40102;50.906;6.972;2024-02-21T04:32:17;9.60;;;2.80;;
54193;SDS011;40102;50.906;6.972;2024-02-21T04:34:42;6.88;;;2.55;;
54193;SDS011;40102;50.906;6.972;2024-02-21T04:37:07;11.90;;;3.45;;
54193;SDS011;40102;50.906;6.972;2024-02-21T04:39:33;12.88;;;3.05;;
54193;SDS011;40102;50.906;6.972;2024-02-21T04:41:58;11.35;;;3.28;;
54193;SDS011;40102;50.906;6.972;2024-02-21T04:44:23;8.90;;;2.83;;
54193;SDS011;40102;50.906;6.972;2024-02-21T04:46:49;8.15;;;3.25;;
54193;SDS011;40102;50.906;6.972;2024-02-21T04:49:16;10.40;;;3.10;;
54193;SDS011;40102;50.906;6.972;2024-02-21T04:51:42;6.63;;;2.60;;
54193;SDS011;40102;50.906;6.972;2024-02-21T04:54:08;7.55;;;2.50;;
54193;SDS011;40102;50.906;6.972;2024-02-21T04:56:33;9.73;;;3.30;;
54193;SDS011;40102;50.906;6.972;2024-02-21T04:58:59;12.65;;;3.33;;
54193;SDS011;40102;50.906;6.972;2024-02-21T05:03:59;9.77;;;3.00;;
54193;SDS011;40102;50.906;6.972;2024-02-21T05:06:25;8.57;;;2.60;;
54193;SDS011;40102;50.906;6.972;2024-02-21T05:08:50;11.65;;;3.33;;
54193;SDS011;40102;50.906;6.972;2024-02-21T05:11:16;8.27;;;3.00;;
54193;SDS011;40102;50.906;6.972;2024-02-21T05:13:41;8.15;;;2.60;;
54193;SDS011;40102;50.906;6.972;2024-02-21T05:16:06;6.15;;;2.45;;
54193;SDS011;40102;50.906;6.972;2024-02-21T05:18:32;6.32;;;2.40;;
54193;SDS011;40102;50.906;6.972;2024-02-21T05:20:58;7.65;;;2.40;;
54193;SDS011;40102;50.906;6.972;2024-02-21T05:23:24;7.10;;;2.58;;
54193;SDS011;40102;50.906;6.972;2024-02-21T05:25:49;7.30;;;2.80;;
54193;SDS011;40102;50.906;6.972;2024-02-21T05:28:14;8.82;;;2.90;;
54193;SDS011;40102;50.906;6.972;2024-02-21T05:30:40;9.27;;;2.70;;
54193;SDS011;40102;50.906;6.972;2024-02-21T05:33:06;8.45;;;2.85;;
54193;SDS011;40102;50.906;6.972;2024-02-21T05:35:31;9.50;;;2.90;;
54193;SDS011;40102;50.906;6.972;2024-02-21T05:37:56;6.50;;;2.63;;
54193;SDS011;40102;50.906;6.972;2024-02-21T05:40:22;12.70;;;2.42;;
54193;SDS011;40102;50.906;6.972;2024-02-21T05:42:48;6.70;;;2.50;;
54193;SDS011;40102;50.906;6.972;2024-02-21T05:45:13;9.23;;;2.88;;
54193;SDS011;40102;50.906;6.972;2024-02-21T05:47:40;7.72;;;2.85;;
54193;SDS011;40102;50.906;6.972;2024-02-21T05:50:06;6.95;;;2.75;;
54193;SDS011;40102;50.906;6.972;2024-02-21T05:52:31;7.82;;;2.30;;
54193;SDS011;40102;50.906;6.972;2024-02-21T05:54:57;9.32;;;4.07;;
54193;SDS011;40102;50.906;6.972;2024-02-21T05:57:22;7.63;;;2.33;;
54193;SDS011;40102;50.906;6.972;2024-02-21T05:59:47;8.82;;;2.70;;
54193;SDS011;40102;50.906;6.972;2024-02-21T06:02:12;7.53;;;2.50;;
54193;SDS011;40102;50.906;6.972;2024-02-21T06:04:38;9.60;;;2.50;;
54193;SDS011;40102;50.906;6.972;2024-02-21T06:07:04;8.55;;;2.70;;
54193;SDS011;40102;50.906;6.972;2024-02-21T06:09:30;7.20;;;2.33;;
54193;SDS011;40102;50.906;6.972;2024-02-21T06:11:55;8.55;;;2.47;;
54193;SDS011;40102;50.906;6.972;2024-02-21T06:14:20;7.32;;;1.92;;
54193;SDS011;40102;50.906;6.972;2024-02-21T06:16:46;9.75;;;2.88;;
54193;SDS011;40102;50.906;6.972;2024-02-21T06:19:11;8.45;;;2.40;;
54193;SDS011;40102;50.906;6.972;2024-02-21T06:21:36;4.93;;;2.20;;
54193;SDS011;40102;50.906;6.972;2024-02-21T06:24:02;7.40;;;1.95;;
54193;SDS011;40102;50.906;6.972;2024-02-21T06:26:28;6.15;;;2.30;;
54193;SDS011;40102;50.906;6.972;2024-02-21T06:28:53;6.57;;;2.20;;
54193;SDS011;40102;50.906;6.972;2024-02-21T06:31:18;6.85;;;2.03;;
54193;SDS011;40102;50.906;6.972;2024-02-21T06:33:44;16.23;;;2.78;;
54193;SDS011;40102;50.906;6.972;2024-02-21T06:36:09;8.18;;;2.47;;
54193;SDS011;40102;50.906;6.972;2024-02-21T06:38:34;8.45;;;2.30;;
54193;SDS011;40102;50.906;6.972;2024-02-21T06:40:59;9.40;;;2.50;;
54193;SDS011;40102;50.906;6.972;2024-02-21T06:43:27;9.77;;;2.88;;
54193;SDS011;40102;50.906;6.972;2024-02-21T06:45:52;8.27;;;2.95;;
54193;SDS011;40102;50.906;6.972;2024-02-21T06:48:19;5.80;;;2.05;;
54193;SDS011;40102;50.906;6.972;2024-02-21T06:50:44;5.90;;;2.63;;
54193;SDS011;40102;50.906;6.972;2024-02-21T06:53:10;7.68;;;2.28;;
54193;SDS011;40102;50.906;6.972;2024-02-21T06:55:35;7.28;;;2.47;;
54193;SDS011;40102;50.906;6.972;2024-02-21T06:58:00;9.43;;;2.83;;
54193;SDS011;40102;50.906;6.972;2024-02-21T07:00:27;11.10;;;2.50;;
54193;SDS011;40102;50.906;6.972;2024-02-21T07:02:53;6.45;;;2.55;;
54193;SDS011;40102;50.906;6.972;2024-02-21T07:05:19;5.55;;;2.20;;
54193;SDS011;40102;50.906;6.972;2024-02-21T07:07:44;10.23;;;2.10;;
54193;SDS011;40102;50.906;6.972;2024-02-21T07:10:09;8.15;;;2.58;;
54193;SDS011;40102;50.906;6.972;2024-02-21T07:12:35;7.10;;;2.58;;
54193;SDS011;40102;50.906;6.972;2024-02-21T07:15:03;8.35;;;2.97;;
54193;SDS011;40102;50.906;6.972;2024-02-21T07:17:29;6.97;;;2.50;;
54193;SDS011;40102;50.906;6.972;2024-02-21T07:19:55;6.43;;;2.83;;
54193;SDS011;40102;50.906;6.972;2024-02-21T07:22:21;7.93;;;2.30;;
54193;SDS011;40102;50.906;6.972;2024-02-21T07:24:47;7.88;;;2.10;;
54193;SDS011;40102;50.906;6.972;2024-02-21T07:27:14;5.38;;;1.90;;
54193;SDS011;40102;50.906;6.972;2024-02-21T07:29:40;7.63;;;2.15;;
54193;SDS011;40102;50.906;6.972;2024-02-21T07:32:05;7.78;;;2.25;;
54193;SDS011;40102;50.906;6.972;2024-02-21T07:34:31;7.60;;;2.20;;
54193;SDS011;40102;50.906;6.972;2024-02-21T07:36:56;7.38;;;2.17;;
54193;SDS011;40102;50.906;6.972;2024-02-21T07:39:22;6.45;;;2.15;;
54193;SDS011;40102;50.906;6.972;2024-02-21T07:41:47;6.53;;;2.55;;
54193;SDS011;40102;50.906;6.972;2024-02-21T07:44:14;7.00;;;2.47;;
54193;SDS011;40102;50.906;6.972;2024-02-21T07:46:39;7.57;;;2.35;;
54193;SDS011;40102;50.906;6.972;2024-02-21T07:49:05;6.72;;;2.70;;
54193;SDS011;40102;50.906;6.972;2024-02-21T07:51:30;6.38;;;2.45;;
54193;SDS011;40102;50.906;6.972;2024-02-21T07:53:55;10.55;;;2.63;;
54193;SDS011;40102;50.906;6.972;2024-02-21T07:56:20;8.55;;;2.83;;
54193;SDS011;40102;50.906;6.972;2024-02-21T07:58:46;8.48;;;2.42;;
54193;SDS011;40102;50.906;6.972;2024-02-21T08:01:11;7.20;;;2.42;;
54193;SDS011;40102;50.906;6.972;2024-02-21T08:03:36;6.72;;;2.40;;
54193;SDS011;40102;50.906;6.972;2024-02-21T08:06:02;8.80;;;2.30;;
54193;SDS011;40102;50.906;6.972;2024-02-21T08:08:28;10.27;;;2.53;;
54193;SDS011;40102;50.906;6.972;2024-02-21T08:10:53;10.27;;;2.58;;
54193;SDS011;40102;50.906;6.972;2024-02-21T08:13:19;5.90;;;2.30;;
54193;SDS011;40102;50.906;6.972;2024-02-21T08:15:44;8.75;;;2.80;;
54193;SDS011;40102;50.906;6.972;2024-02-21T08:18:09;8.50;;;2.83;;
54193;SDS011;40102;50.906;6.972;2024-02-21T08:20:35;11.10;;;2.78;;
54193;SDS011;40102;50.906;6.972;2024-02-21T08:23:00;8.95;;;2.80;;
54193;SDS011;40102;50.906;6.972;2024-02-21T08:25:26;8.93;;;2.42;;
54193;SDS011;40102;50.906;6.972;2024-02-21T08:27:51;9.85;;;2.83;;
54193;SDS011;40102;50.906;6.972;2024-02-21T08:30:17;11.30;;;3.25;;
54193;SDS011;40102;50.906;6.972;2024-02-21T08:32:42;9.18;;;2.80;;
54193;SDS011;40102;50.906;6.972;2024-02-21T08:35:08;11.20;;;3.22;;
54193;SDS011;40102;50.906;6.972;2024-02-21T08:37:33;13.43;;;3.10;;
54193;SDS011;40102;50.906;6.972;2024-02-21T08:39:58;9.43;;;2.97;;
54193;SDS011;40102;50.906;6.972;2024-02-21T08:42:29;11.80;;;2.85;;
54193;SDS011;40102;50.906;6.972;2024-02-21T08:44:54;12.43;;;3.20;;
54193;SDS011;40102;50.906;6.972;2024-02-21T08:47:20;12.95;;;2.90;;
54193;SDS011;40102;50.906;6.972;2024-02-21T08:49:45;8.80;;;2.80;;
54193;SDS011;40102;50.906;6.972;2024-02-21T08:52:10;22.40;;;2.80;;
54193;SDS011;40102;50.906;6.972;2024-02-21T08:54:35;13.82;;;2.55;;
54193;SDS011;40102;50.906;6.972;2024-02-21T08:57:01;7.60;;;2.40;;
54193;SDS011;40102;50.906;6.972;2024-02-21T08:59:26;8.27;;;2.83;;
54193;SDS011;40102;50.906;6.972;2024-02-21T09:01:52;7.90;;;2.67;;
54193;SDS011;40102;50.906;6.972;2024-02-21T09:04:18;7.95;;;3.15;;
54193;SDS011;40102;50.906;6.972;2024-02-21T09:06:44;7.07;;;2.40;;
54193;SDS011;40102;50.906;6.972;2024-02-21T09:09:11;4.97;;;1.95;;
54193;SDS011;40102;50.906;6.972;2024-02-21T09:11:36;13.40;;;3.45;;
54193;SDS011;40102;50.906;6.972;2024-02-21T09:14:02;7.50;;;2.22;;
54193;SDS011;40102;50.906;6.972;2024-02-21T09:16:29;5.68;;;2.75;;
54193;SDS011;40102;50.906;6.972;2024-02-21T09:18:57;10.35;;;2.83;;
54193;SDS011;40102;50.906;6.972;2024-02-21T09:21:23;12.15;;;2.55;;
54193;SDS011;40102;50.906;6.972;2024-02-21T09:23:48;8.52;;;2.72;;
54193;SDS011;40102;50.906;6.972;2024-02-21T09:26:13;7.03;;;2.75;;
54193;SDS011;40102;50.906;6.972;2024-02-21T09:28:41;4.45;;;1.95;;
54193;SDS011;40102;50.906;6.972;2024-02-21T09:31:07;7.10;;;2.97;;
54193;SDS011;40102;50.906;6.972;2024-02-21T09:33:32;10.60;;;2.50;;
54193;SDS011;40102;50.906;6.972;2024-02-21T09:35:58;6.93;;;2.40;;
54193;SDS011;40102;50.906;6.972;2024-02-21T09:38:23;10.00;;;2.30;;
54193;SDS011;40102;50.906;6.972;2024-02-21T09:41:00;8.00;;;2.13;;
54193;SDS011;40102;50.906;6.972;2024-02-21T09:43:36;7.43;;;2.35;;
54193;SDS011;40102;50.906;6.972;2024-02-21T09:46:05;7.70;;;2.45;;
54193;SDS011;40102;50.906;6.972;2024-02-21T09:51:04;5.55;;;2.55;;
54193;SDS011;40102;50.906;6.972;2024-02-21T09:53:32;9.43;;;2.47;;
54193;SDS011;40102;50.906;6.972;2024-02-21T09:55:59;11.00;;;2.50;;
54193;SDS011;40102;50.906;6.972;2024-02-21T09:58:25;8.82;;;2.53;;
54193;SDS011;40102;50.906;6.972;2024-02-21T10:00:52;7.28;;;2.05;;
54193;SDS011;40102;50.906;6.972;2024-02-21T10:03:18;11.60;;;2.38;;
54193;SDS011;40102;50.906;6.972;2024-02-21T10:05:46;7.63;;;2.22;;
54193;SDS011;40102;50.906;6.972;2024-02-21T10:08:14;5.85;;;2.00;;
54193;SDS011;40102;50.906;6.972;2024-02-21T10:10:41;8.18;;;2.35;;
54193;SDS011;40102;50.906;6.972;2024-02-21T10:13:09;7.68;;;2.35;;
54193;SDS011;40102;50.906;6.972;2024-02-21T10:15:34;5.45;;;2.05;;
54193;SDS011;40102;50.906;6.972;2024-02-21T10:18:00;7.47;;;2.30;;
54193;SDS011;40102;50.906;6.972;2024-02-21T10:20:28;6.65;;;2.42;;
54193;SDS011;40102;50.906;6.972;2024-02-21T10:23:05;8.60;;;2.38;;
54193;SDS011;40102;50.906;6.972;2024-02-21T10:25:33;8.90;;;2.42;;
54193;SDS011;40102;50.906;6.972;2024-02-21T10:28:00;8.18;;;2.28;;
54193;SDS011;40102;50.906;6.972;2024-02-21T10:30:26;7.72;;;2.42;;
54193;SDS011;40102;50.906;6.972;2024-02-21T10:32:52;5.75;;;2.53;;
54193;SDS011;40102;50.906;6.972;2024-02-21T10:35:28;6.68;;;2.30;;
54193;SDS011;40102;50.906;6.972;2024-02-21T10:37:55;9.27;;;2.28;;
54193;SDS011;40102;50.906;6.972;2024-02-21T10:40:27;6.82;;;2.00;;
54193;SDS011;40102;50.906;6.972;2024-02-21T10:42:56;7.03;;;2.05;;
54193;SDS011;40102;50.906;6.972;2024-02-21T10:45:34;6.85;;;2.30;;
54193;SDS011;40102;50.906;6.972;2024-02-21T10:48:15;9.60;;;1.90;;
54193;SDS011;40102;50.906;6.972;2024-02-21T10:50:57;7.82;;;2.55;;
54193;SDS011;40102;50.906;6.972;2024-02-21T10:56:11;5.60;;;2.35;;
54193;SDS011;40102;50.906;6.972;2024-02-21T10:58:49;7.35;;;2.05;;
54193;SDS011;40102;50.906;6.972;2024-02-21T11:01:15;6.45;;;2.13;;
54193;SDS011;40102;50.906;6.972;2024-02-21T11:03:43;5.72;;;1.83;;
54193;SDS011;40102;50.906;6.972;2024-02-21T11:06:10;7.70;;;2.00;;
54193;SDS011;40102;50.906;6.972;2024-02-21T11:08:37;4.93;;;1.70;;
54193;SDS011;40102;50.906;6.972;2024-02-21T11:11:02;6.60;;;2.10;;
54193;SDS011;40102;50.906;6.972;2024-02-21T11:13:30;6.55;;;1.98;;
54193;SDS011;40102;50.906;6.972;2024-02-21T11:16:07;7.38;;;1.92;;
54193;SDS011;40102;50.906;6.972;2024-02-21T11:18:39;6.53;;;1.88;;
54193;SDS011;40102;50.906;6.972;2024-02-21T11:21:05;6.47;;;1.88;;
54193;SDS011;40102;50.906;6.972;2024-02-21T11:23:31;5.45;;;1.98;;
54193;SDS011;40102;50.906;6.972;2024-02-21T11:26:04;9.40;;;2.17;;
54193;SDS011;40102;50.906;6.972;2024-02-21T11:28:32;6.28;;;1.70;;
54193;SDS011;40102;50.906;6.972;2024-02-21T11:31:08;5.80;;;2.00;;
54193;SDS011;40102;50.906;6.972;2024-02-21T11:33:35;8.93;;;1.48;;
54193;SDS011;40102;50.906;6.972;2024-02-21T11:36:08;5.15;;;1.70;;
54193;SDS011;40102;50.906;6.972;2024-02-21T11:38:34;6.90;;;2.13;;
54193;SDS011;40102;50.906;6.972;2024-02-21T11:40:59;8.70;;;1.67;;
54193;SDS011;40102;50.906;6.972;2024-02-21T11:43:24;5.90;;;2.45;;
54193;SDS011;40102;50.906;6.972;2024-02-21T11:45:50;8.48;;;1.80;;
54193;SDS011;40102;50.906;6.972;2024-02-21T11:48:23;4.18;;;1.45;;
54193;SDS011;40102;50.906;6.972;2024-02-21T11:50:53;6.22;;;1.60;;
54193;SDS011;40102;50.906;6.972;2024-02-21T11:53:21;8.48;;;2.50;;
54193;SDS011;40102;50.906;6.972;2024-02-21T11:55:47;6.93;;;1.67;;
54193;SDS011;40102;50.906;6.972;2024-02-21T11:58:13;8.88;;;2.08;;
54193;SDS011;40102;50.906;6.972;2024-02-21T12:00:38;7.22;;;1.98;;
54193;SDS011;40102;50.906;6.972;2024-02-21T12:03:04;5.80;;;1.85;;
54193;SDS011;40102;50.906;6.972;2024-02-21T12:05:29;6.80;;;1.80;;
54193;SDS011;40102;50.906;6.972;2024-02-21T12:07:55;3.45;;;1.52;;
54193;SDS011;40102;50.906;6.972;2024-02-21T12:10:23;10.35;;;2.20;;
54193;SDS011;40102;50.906;6.972;2024-02-21T12:12:48;6.00;;;1.67;;
54193;SDS011;40102;50.906;6.972;2024-02-21T12:15:16;7.97;;;2.08;;
54193;SDS011;40102;50.906;6.972;2024-02-21T12:17:43;6.40;;;2.10;;
54193;SDS011;40102;50.906;6.972;2024-02-21T12:20:10;5.18;;;2.00;;
54193;SDS011;40102;50.906;6.972;2024-02-21T12:22:36;6.35;;;2.00;;
54193;SDS011;40102;50.906;6.972;2024-02-21T12:25:24;6.88;;;1.70;;
54193;SDS011;40102;50.906;6.972;2024-02-21T12:27:50;7.57;;;2.03;;
54193;SDS011;40102;50.906;6.972;2024-02-21T12:30:16;7.70;;;2.40;;
54193;SDS011;40102;50.906;6.972;2024-02-21T12:32:41;5.65;;;2.33;;
54193;SDS011;40102;50.906;6.972;2024-02-21T12:35:07;9.02;;;2.25;;
54193;SDS011;40102;50.906;6.972;2024-02-21T12:37:32;6.63;;;1.77;;
54193;SDS011;40102;50.906;6.972;2024-02-21T12:39:58;8.52;;;2.10;;
54193;SDS011;40102;50.906;6.972;2024-02-21T12:42:23;8.52;;;2.75;;
54193;SDS011;40102;50.906;6.972;2024-02-21T12:44:50;5.32;;;1.88;;
54193;SDS011;40102;50.906;6.972;2024-02-21T12:47:17;27.15;;;3.13;;
54193;SDS011;40102;50.906;6.972;2024-02-21T12:49:44;8.30;;;1.70;;
54193;SDS011;40102;50.906;6.972;2024-02-21T12:52:09;9.15;;;2.00;;
54193;SDS011;40102;50.906;6.972;2024-02-21T12:54:35;29.50;;;3.03;;
54193;SDS011;40102;50.906;6.972;2024-02-21T12:57:00;9.55;;;2.40;;
54193;SDS011;40102;50.906;6.972;2024-02-21T12:59:28;5.13;;;1.95;;
54193;SDS011;40102;50.906;6.972;2024-02-21T13:01:53;4.80;;;1.67;;
54193;SDS011;40102;50.906;6.972;2024-02-21T13:04:19;8.98;;;1.73;;
54193;SDS011;40102;50.906;6.972;2024-02-21T13:06:44;10.55;;;1.98;;
54193;SDS011;40102;50.906;6.972;2024-02-21T13:09:09;6.15;;;1.98;;
54193;SDS011;40102;50.906;6.972;2024-02-21T13:11:36;6.35;;;2.10;;
54193;SDS011;40102;50.906;6.972;2024-02-21T13:14:02;5.07;;;1.90;;
54193;SDS011;40102;50.906;6.972;2024-02-21T13:16:28;5.32;;;1.63;;
54193;SDS011;40102;50.906;6.972;2024-02-21T13:18:53;6.40;;;1.90;;
54193;SDS011;40102;50.906;6.972;2024-02-21T13:21:18;16.52;;;2.08;;
54193;SDS011;40102;50.906;6.972;2024-02-21T13:23:44;7.75;;;1.80;;
54193;SDS011;40102;50.906;6.972;2024-02-21T13:26:10;5.22;;;2.10;;
54193;SDS011;40102;50.906;6.972;2024-02-21T13:28:36;2.85;;;1.67;;
54193;SDS011;40102;50.906;6.972;2024-02-21T13:31:01;5.18;;;1.83;;
54193;SDS011;40102;50.906;6.972;2024-02-21T13:33:28;6.43;;;2.25;;
54193;SDS011;40102;50.906;6.972;2024-02-21T13:35:53;5.53;;;1.65;;
54193;SDS011;40102;50.906;6.972;2024-02-21T13:38:19;4.43;;;1.70;;
54193;SDS011;40102;50.906;6.972;2024-02-21T13:40:44;4.82;;;1.75;;
54193;SDS011;40102;50.906;6.972;2024-02-21T13:43:13;4.93;;;1.90;;
54193;SDS011;40102;50.906;6.972;2024-02-21T13:45:38;5.07;;;1.80;;
54193;SDS011;40102;50.906;6.972;2024-02-21T13:48:06;6.82;;;1.63;;
54193;SDS011;40102;50.906;6.972;2024-02-21T13:50:35;5.85;;;2.10;;
54193;SDS011;40102;50.906;6.972;2024-02-21T13:53:07;7.88;;;2.10;;
54193;SDS011;40102;50.906;6.972;2024-02-21T13:55:34;9.45;;;2.40;;
54193;SDS011;40102;50.906;6.972;2024-02-21T13:57:59;5.82;;;1.90;;
54193;SDS011;40102;50.906;6.972;2024-02-21T14:00:25;5.07;;;1.80;;
54193;SDS011;40102;50.906;6.972;2024-02-21T14:02:52;6.15;;;1.92;;
54193;SDS011;40102;50.906;6.972;2024-02-21T14:05:17;9.25;;;1.90;;
54193;SDS011;40102;50.906;6.972;2024-02-21T14:07:42;5.70;;;2.13;;
54193;SDS011;40102;50.906;6.972;2024-02-21T14:10:08;7.20;;;1.95;;
54193;SDS011;40102;50.906;6.972;2024-02-21T14:12:34;7.15;;;2.17;;
54193;SDS011;40102;50.906;6.972;2024-02-21T14:14:59;6.60;;;1.90;;
54193;SDS011;40102;50.906;6.972;2024-02-21T14:17:25;8.00;;;2.20;;
54193;SDS011;40102;50.906;6.972;2024-02-21T14:19:50;7.72;;;1.98;;
54193;SDS011;40102;50.906;6.972;2024-02-21T14:22:16;7.97;;;2.03;;
54193;SDS011;40102;50.906;6.972;2024-02-21T14:24:42;4.05;;;1.88;;
54193;SDS011;40102;50.906;6.972;2024-02-21T14:27:07;4.97;;;1.63;;
54193;SDS011;40102;50.906;6.972;2024-02-21T14:29:33;5.38;;;1.70;;
54193;SDS011;40102;50.906;6.972;2024-02-21T14:31:59;4.53;;;1.70;;
54193;SDS011;40102;50.906;6.972;2024-02-21T14:34:24;5.65;;;1.63;;
54193;SDS011;40102;50.906;6.972;2024-02-21T14:36:50;5.28;;;1.60;;
54193;SDS011;40102;50.906;6.972;2024-02-21T14:39:15;5.28;;;1.65;;
54193;SDS011;40102;50.906;6.972;2024-02-21T14:41:40;4.28;;;1.50;;
54193;SDS011;40102;50.906;6.972;2024-02-21T14:44:08;5.57;;;1.70;;
54193;SDS011;40102;50.906;6.972;2024-02-21T14:46:34;6.82;;;1.50;;